createdAt,value
2019-01-27T00:00:06.368Z,929.21
2019-01-27T00:00:19.414Z,929.22
2019-01-27T00:00:31.983Z,929.21
2019-01-27T00:00:45.002Z,929.19
2019-01-27T00:00:58.031Z,929.22
2019-01-27T00:01:11.043Z,929.19
2019-01-27T00:01:24.013Z,929.21
2019-01-27T00:01:36.973Z,929.2
2019-01-27T00:01:49.537Z,929.21
2019-01-27T00:02:02.520Z,929.22
2019-01-27T00:02:15.499Z,929.21
2019-01-27T00:02:28.526Z,929.22
2019-01-27T00:02:41.554Z,929.22
2019-01-27T00:02:54.507Z,929.27
2019-01-27T00:03:07.553Z,929.22
2019-01-27T00:03:20.537Z,929.26
2019-01-27T00:03:33.519Z,929.24
2019-01-27T00:03:46.535Z,929.21
2019-01-27T00:03:59.465Z,929.24
2019-01-27T00:04:12.506Z,929.23
2019-01-27T00:04:25.995Z,929.22
2019-01-27T00:04:39.006Z,929.17
2019-01-27T00:04:52.011Z,929.23
2019-01-27T00:05:05.026Z,929.18
2019-01-27T00:05:18.611Z,929.19
2019-01-27T00:05:31.586Z,929.25
2019-01-27T00:05:44.560Z,929.21
2019-01-27T00:05:57.576Z,929.21
2019-01-27T00:06:10.601Z,929.22
2019-01-27T00:06:23.579Z,929.22
2019-01-27T00:06:36.622Z,929.23
2019-01-27T00:06:49.570Z,929.25
2019-01-27T00:07:02.572Z,929.25
2019-01-27T00:07:15.528Z,929.26
2019-01-27T00:07:28.531Z,929.21
2019-01-27T00:07:41.528Z,929.24
2019-01-27T00:07:54.468Z,929.21
2019-01-27T00:08:14.055Z,929.25
2019-01-27T00:08:26.997Z,929.21
2019-01-27T00:08:39.959Z,929.23
2019-01-27T00:08:52.975Z,929.23
2019-01-27T00:09:06.026Z,929.23
2019-01-27T00:09:19.064Z,929.23
2019-01-27T00:09:32.112Z,929.26
2019-01-27T00:09:45.139Z,929.27
2019-01-27T00:09:58.121Z,929.27
2019-01-27T00:10:11.160Z,929.26
2019-01-27T00:10:24.219Z,929.27
2019-01-27T00:10:37.155Z,929.23
2019-01-27T00:10:50.158Z,929.29
2019-01-27T00:11:03.182Z,929.29
2019-01-27T00:11:16.177Z,929.29
2019-01-27T00:11:29.206Z,929.28
2019-01-27T00:11:42.213Z,929.28
2019-01-27T00:11:55.250Z,929.27
2019-01-27T00:12:08.214Z,929.24
2019-01-27T00:12:21.191Z,929.26
2019-01-27T00:12:34.159Z,929.25
2019-01-27T00:12:47.111Z,929.24
2019-01-27T00:13:00.176Z,929.27
2019-01-27T00:13:13.145Z,929.21
2019-01-27T00:13:25.735Z,929.23
2019-01-27T00:13:38.713Z,929.25
2019-01-27T00:13:51.277Z,929.28
2019-01-27T00:14:04.314Z,929.24
2019-01-27T00:14:17.398Z,929.21
2019-01-27T00:14:30.367Z,929.27
2019-01-27T00:14:43.343Z,929.27
2019-01-27T00:14:56.311Z,929.33
2019-01-27T00:15:10.355Z,929.3
2019-01-27T00:15:23.399Z,929.28
2019-01-27T00:15:35.950Z,929.29
2019-01-27T00:15:48.905Z,929.27
2019-01-27T00:16:01.858Z,929.3
2019-01-27T00:16:14.894Z,929.32
2019-01-27T00:16:27.908Z,929.32
2019-01-27T00:16:40.890Z,929.33
2019-01-27T00:16:53.959Z,929.32
2019-01-27T00:17:06.971Z,929.35
2019-01-27T00:17:19.953Z,929.35
2019-01-27T00:17:32.898Z,929.35
2019-01-27T00:17:45.891Z,929.36
2019-01-27T00:17:58.925Z,929.34
2019-01-27T00:18:11.894Z,929.35
2019-01-27T00:18:24.898Z,929.34
2019-01-27T00:18:37.884Z,929.37
2019-01-27T00:18:50.900Z,929.36
2019-01-27T00:19:03.927Z,929.35
2019-01-27T00:19:16.996Z,929.38
2019-01-27T00:19:30.026Z,929.4
2019-01-27T00:19:43.042Z,929.38
2019-01-27T00:19:56.096Z,929.4
2019-01-27T00:20:09.133Z,929.43
2019-01-27T00:20:22.400Z,929.37
2019-01-27T00:20:35.403Z,929.42
2019-01-27T00:20:48.375Z,929.42
2019-01-27T00:21:01.360Z,929.43
2019-01-27T00:21:14.388Z,929.41
2019-01-27T00:21:27.368Z,929.41
2019-01-27T00:21:40.354Z,929.44
2019-01-27T00:21:53.427Z,929.43
2019-01-27T00:22:06.454Z,929.44
2019-01-27T00:22:19.409Z,929.46
2019-01-27T00:22:32.412Z,929.49
2019-01-27T00:22:45.447Z,929.49
2019-01-27T00:22:58.413Z,929.47
2019-01-27T00:23:11.424Z,929.51
2019-01-27T00:23:24.401Z,929.5
2019-01-27T00:23:37.384Z,929.48
2019-01-27T00:23:49.898Z,929.49
2019-01-27T00:24:02.933Z,929.52
2019-01-27T00:24:15.923Z,929.5
2019-01-27T00:24:28.920Z,929.53
2019-01-27T00:24:41.965Z,929.49
2019-01-27T00:24:54.963Z,929.5
2019-01-27T00:25:07.935Z,929.52
2019-01-27T00:25:21.121Z,929.52
2019-01-27T00:25:34.052Z,929.55
2019-01-27T00:25:47.063Z,929.54
2019-01-27T00:26:00.059Z,929.56
2019-01-27T00:26:13.086Z,929.55
2019-01-27T00:26:26.059Z,929.54
2019-01-27T00:26:39.032Z,929.55
2019-01-27T00:26:52.047Z,929.55
2019-01-27T00:27:05.016Z,929.58
2019-01-27T00:27:17.629Z,929.59
2019-01-27T00:27:30.615Z,929.56
2019-01-27T00:27:43.630Z,929.59
2019-01-27T00:27:56.597Z,929.58
2019-01-27T00:28:09.599Z,929.6
2019-01-27T00:28:22.564Z,929.62
2019-01-27T00:28:35.564Z,929.61
2019-01-27T00:28:48.577Z,929.6
2019-01-27T00:29:01.611Z,929.6
2019-01-27T00:29:14.632Z,929.61
2019-01-27T00:29:27.624Z,929.61
2019-01-27T00:29:40.609Z,929.64
2019-01-27T00:29:53.622Z,929.61
2019-01-27T00:30:06.615Z,929.67
2019-01-27T00:30:19.621Z,929.6
2019-01-27T00:30:32.675Z,929.61
2019-01-27T00:30:45.590Z,929.62
2019-01-27T00:30:58.523Z,929.61
2019-01-27T00:31:11.576Z,929.62
2019-01-27T00:31:24.184Z,929.63
2019-01-27T00:31:37.134Z,929.58
2019-01-27T00:31:50.184Z,929.6
2019-01-27T00:32:03.260Z,929.62
2019-01-27T00:32:16.293Z,929.59
2019-01-27T00:32:29.318Z,929.66
2019-01-27T00:32:42.390Z,929.64
2019-01-27T00:32:55.395Z,929.66
2019-01-27T00:33:08.393Z,929.65
2019-01-27T00:33:21.412Z,929.68
2019-01-27T00:33:34.415Z,929.66
2019-01-27T00:33:47.386Z,929.65
2019-01-27T00:34:00.401Z,929.67
2019-01-27T00:34:13.433Z,929.68
2019-01-27T00:34:26.427Z,929.65
2019-01-27T00:34:39.452Z,929.65
2019-01-27T00:34:52.464Z,929.7
2019-01-27T00:35:05.443Z,929.68
2019-01-27T00:35:18.396Z,929.66
2019-01-27T00:35:32.151Z,929.69
2019-01-27T00:35:45.186Z,929.66
2019-01-27T00:35:58.198Z,929.67
2019-01-27T00:36:11.195Z,929.73
2019-01-27T00:36:24.230Z,929.69
2019-01-27T00:36:37.267Z,929.7
2019-01-27T00:36:50.271Z,929.68
2019-01-27T00:37:03.264Z,929.69
2019-01-27T00:37:16.343Z,929.73
2019-01-27T00:37:29.405Z,929.71
2019-01-27T00:37:42.455Z,929.69
2019-01-27T00:37:55.410Z,929.7
2019-01-27T00:38:08.380Z,929.69
2019-01-27T00:38:21.386Z,929.68
2019-01-27T00:38:34.371Z,929.67
2019-01-27T00:38:47.419Z,929.7
2019-01-27T00:39:00.464Z,929.67
2019-01-27T00:39:13.490Z,929.69
2019-01-27T00:39:26.533Z,929.67
2019-01-27T00:39:39.484Z,929.69
2019-01-27T00:39:52.495Z,929.67
2019-01-27T00:40:05.467Z,929.65
2019-01-27T00:40:18.490Z,929.68
2019-01-27T00:40:31.426Z,929.69
2019-01-27T00:40:44.454Z,929.66
2019-01-27T00:40:57.471Z,929.64
2019-01-27T00:41:10.472Z,929.66
2019-01-27T00:41:23.472Z,929.64
2019-01-27T00:41:36.514Z,929.62
2019-01-27T00:41:49.550Z,929.65
2019-01-27T00:42:02.511Z,929.65
2019-01-27T00:42:15.563Z,929.64
2019-01-27T00:42:28.530Z,929.61
2019-01-27T00:42:41.550Z,929.62
2019-01-27T00:42:54.090Z,929.59
2019-01-27T00:43:07.140Z,929.59
2019-01-27T00:43:20.115Z,929.63
2019-01-27T00:43:33.156Z,929.59
2019-01-27T00:43:45.682Z,929.61
2019-01-27T00:43:58.696Z,929.64
2019-01-27T00:44:12.253Z,929.62
2019-01-27T00:44:25.317Z,929.64
2019-01-27T00:44:38.345Z,929.61
2019-01-27T00:44:51.332Z,929.62
2019-01-27T00:45:04.398Z,929.61
2019-01-27T00:45:17.362Z,929.62
2019-01-27T00:45:30.303Z,929.6
2019-01-27T00:45:43.312Z,929.65
2019-01-27T00:45:56.272Z,929.63
2019-01-27T00:46:09.329Z,929.64
2019-01-27T00:46:22.316Z,929.61
2019-01-27T00:46:35.355Z,929.61
2019-01-27T00:46:48.376Z,929.63
2019-01-27T00:47:01.398Z,929.63
2019-01-27T00:47:14.421Z,929.63
2019-01-27T00:47:27.426Z,929.65
2019-01-27T00:47:40.395Z,929.62
2019-01-27T00:47:53.399Z,929.63
2019-01-27T00:48:06.455Z,929.6
2019-01-27T00:48:19.509Z,929.62
2019-01-27T00:48:32.555Z,929.57
2019-01-27T00:48:45.569Z,929.58
2019-01-27T00:48:58.608Z,929.58
2019-01-27T00:49:11.632Z,929.58
2019-01-27T00:49:24.605Z,929.62
2019-01-27T00:49:37.662Z,929.59
2019-01-27T00:49:50.674Z,929.61
2019-01-27T00:50:03.732Z,929.57
2019-01-27T00:50:16.790Z,929.61
2019-01-27T00:50:30.394Z,929.61
2019-01-27T00:50:42.895Z,929.6
2019-01-27T00:50:55.909Z,929.59
2019-01-27T00:51:08.898Z,929.58
2019-01-27T00:51:21.873Z,929.58
2019-01-27T00:51:34.869Z,929.56
2019-01-27T00:51:47.872Z,929.59
2019-01-27T00:52:00.828Z,929.6
2019-01-27T00:52:13.774Z,929.6
2019-01-27T00:52:26.781Z,929.6
2019-01-27T00:52:39.781Z,929.58
2019-01-27T00:52:52.738Z,929.58
2019-01-27T00:53:05.760Z,929.57
2019-01-27T00:53:18.806Z,929.58
2019-01-27T00:53:31.809Z,929.56
2019-01-27T00:53:44.869Z,929.57
2019-01-27T00:53:57.786Z,929.57
2019-01-27T00:54:10.837Z,929.61
2019-01-27T00:54:23.853Z,929.58
2019-01-27T00:54:36.850Z,929.59
2019-01-27T00:54:49.900Z,929.57
2019-01-27T00:55:02.897Z,929.58
2019-01-27T00:55:15.930Z,929.57
2019-01-27T00:55:28.914Z,929.6
2019-01-27T00:55:41.841Z,929.61
2019-01-27T00:55:54.896Z,929.58
2019-01-27T00:56:07.890Z,929.58
2019-01-27T00:56:20.918Z,929.6
2019-01-27T00:56:33.878Z,929.59
2019-01-27T00:56:46.931Z,929.59
2019-01-27T00:56:59.955Z,929.58
2019-01-27T00:57:12.990Z,929.59
2019-01-27T00:57:25.946Z,929.59
2019-01-27T00:57:38.937Z,929.59
2019-01-27T00:57:51.888Z,929.6
2019-01-27T00:58:04.873Z,929.62
2019-01-27T00:58:17.430Z,929.57
2019-01-27T00:58:30.470Z,929.58
2019-01-27T00:58:43.508Z,929.61
2019-01-27T00:58:56.566Z,929.59
2019-01-27T00:59:09.590Z,929.6
2019-01-27T00:59:22.619Z,929.61
2019-01-27T00:59:35.664Z,929.57
2019-01-27T00:59:48.711Z,929.56
2019-01-27T01:00:01.750Z,929.58
2019-01-27T01:00:14.811Z,929.57
2019-01-27T01:00:27.821Z,929.61
2019-01-27T01:00:40.772Z,929.56
2019-01-27T01:00:53.745Z,929.6
2019-01-27T01:01:06.715Z,929.6
2019-01-27T01:01:19.800Z,929.61
2019-01-27T01:01:32.818Z,929.62
2019-01-27T01:01:45.813Z,929.62
2019-01-27T01:01:58.806Z,929.65
2019-01-27T01:02:11.379Z,929.64
2019-01-27T01:02:24.352Z,929.66
2019-01-27T01:02:37.335Z,929.66
2019-01-27T01:02:50.358Z,929.62
2019-01-27T01:03:03.407Z,929.65
2019-01-27T01:03:16.377Z,929.66
2019-01-27T01:03:29.371Z,929.66
2019-01-27T01:03:42.340Z,929.67
2019-01-27T01:03:55.275Z,929.66
2019-01-27T01:04:08.255Z,929.65
2019-01-27T01:04:21.276Z,929.65
2019-01-27T01:04:34.317Z,929.68
2019-01-27T01:04:47.321Z,929.66
2019-01-27T01:05:00.350Z,929.66
2019-01-27T01:05:13.384Z,929.64
2019-01-27T01:05:26.418Z,929.65
2019-01-27T01:05:40.108Z,929.66
2019-01-27T01:05:53.131Z,929.64
2019-01-27T01:06:06.133Z,929.65
2019-01-27T01:06:19.107Z,929.68
2019-01-27T01:06:32.097Z,929.64
2019-01-27T01:06:46.240Z,929.63
2019-01-27T01:06:59.286Z,929.65
2019-01-27T01:07:12.330Z,929.61
2019-01-27T01:07:25.298Z,929.64
2019-01-27T01:07:38.276Z,929.61
2019-01-27T01:07:51.359Z,929.64
2019-01-27T01:08:04.328Z,929.63
2019-01-27T01:08:17.291Z,929.6
2019-01-27T01:08:30.301Z,929.61
2019-01-27T01:08:43.326Z,929.62
2019-01-27T01:08:56.355Z,929.6
2019-01-27T01:09:09.365Z,929.59
2019-01-27T01:09:22.385Z,929.59
2019-01-27T01:09:35.352Z,929.61
2019-01-27T01:09:48.389Z,929.58
2019-01-27T01:10:01.381Z,929.58
2019-01-27T01:10:14.403Z,929.57
2019-01-27T01:10:27.404Z,929.59
2019-01-27T01:10:40.400Z,929.62
2019-01-27T01:10:53.373Z,929.56
2019-01-27T01:11:06.331Z,929.57
2019-01-27T01:11:19.308Z,929.6
2019-01-27T01:11:32.349Z,929.59
2019-01-27T01:11:45.293Z,929.6
2019-01-27T01:11:58.299Z,929.6
2019-01-27T01:12:11.304Z,929.6
2019-01-27T01:12:24.360Z,929.58
2019-01-27T01:12:37.371Z,929.59
2019-01-27T01:12:50.363Z,929.61
2019-01-27T01:13:03.409Z,929.61
2019-01-27T01:13:16.376Z,929.58
2019-01-27T01:13:29.310Z,929.55
2019-01-27T01:13:42.302Z,929.58
2019-01-27T01:13:55.347Z,929.59
2019-01-27T01:14:08.316Z,929.58
2019-01-27T01:14:21.272Z,929.59
2019-01-27T01:14:34.289Z,929.61
2019-01-27T01:14:47.217Z,929.6
2019-01-27T01:15:00.264Z,929.61
2019-01-27T01:15:13.250Z,929.56
2019-01-27T01:15:26.289Z,929.6
2019-01-27T01:15:39.276Z,929.58
2019-01-27T01:15:52.304Z,929.58
2019-01-27T01:16:05.273Z,929.58
2019-01-27T01:16:18.367Z,929.58
2019-01-27T01:16:31.377Z,929.55
2019-01-27T01:16:44.353Z,929.58
2019-01-27T01:16:57.369Z,929.53
2019-01-27T01:17:10.421Z,929.54
2019-01-27T01:17:23.426Z,929.57
2019-01-27T01:17:36.447Z,929.54
2019-01-27T01:17:49.431Z,929.55
2019-01-27T01:18:02.440Z,929.55
2019-01-27T01:18:15.395Z,929.57
2019-01-27T01:18:28.406Z,929.58
2019-01-27T01:18:41.377Z,929.56
2019-01-27T01:18:54.362Z,929.59
2019-01-27T01:19:07.359Z,929.63
2019-01-27T01:19:20.401Z,929.61
2019-01-27T01:19:33.445Z,929.58
2019-01-27T01:19:46.451Z,929.63
2019-01-27T01:19:59.367Z,929.6
2019-01-27T01:20:11.951Z,929.58
2019-01-27T01:20:24.970Z,929.61
2019-01-27T01:20:38.313Z,929.6
2019-01-27T01:20:51.340Z,929.59
2019-01-27T01:21:04.304Z,929.62
2019-01-27T01:21:17.258Z,929.63
2019-01-27T01:21:30.248Z,929.67
2019-01-27T01:21:43.306Z,929.64
2019-01-27T01:21:56.316Z,929.62
2019-01-27T01:22:09.269Z,929.65
2019-01-27T01:22:22.286Z,929.62
2019-01-27T01:22:35.283Z,929.65
2019-01-27T01:22:48.289Z,929.64
2019-01-27T01:23:01.259Z,929.63
2019-01-27T01:23:14.230Z,929.66
2019-01-27T01:23:27.209Z,929.65
2019-01-27T01:23:40.272Z,929.66
2019-01-27T01:23:53.345Z,929.66
2019-01-27T01:24:06.348Z,929.65
2019-01-27T01:24:19.406Z,929.63
2019-01-27T01:24:32.472Z,929.63
2019-01-27T01:24:45.543Z,929.63
2019-01-27T01:24:58.611Z,929.62
2019-01-27T01:25:11.672Z,929.62
2019-01-27T01:25:24.628Z,929.59
2019-01-27T01:25:37.823Z,929.63
2019-01-27T01:25:50.823Z,929.59
2019-01-27T01:26:03.847Z,929.61
2019-01-27T01:26:16.885Z,929.59
2019-01-27T01:26:29.907Z,929.57
2019-01-27T01:26:42.923Z,929.58
2019-01-27T01:26:55.935Z,929.56
2019-01-27T01:27:08.951Z,929.57
2019-01-27T01:27:21.909Z,929.59
2019-01-27T01:27:34.932Z,929.61
2019-01-27T01:27:47.525Z,929.61
2019-01-27T01:28:00.556Z,929.65
2019-01-27T01:28:13.594Z,929.61
2019-01-27T01:28:26.573Z,929.63
2019-01-27T01:28:39.618Z,929.68
2019-01-27T01:28:52.634Z,929.69
2019-01-27T01:29:06.088Z,929.65
2019-01-27T01:29:19.046Z,929.68
2019-01-27T01:29:32.030Z,929.67
2019-01-27T01:29:45.076Z,929.69
2019-01-27T01:29:58.107Z,929.71
2019-01-27T01:30:10.658Z,929.71
2019-01-27T01:30:23.669Z,929.71
2019-01-27T01:30:36.730Z,929.69
2019-01-27T01:30:49.757Z,929.73
2019-01-27T01:31:02.705Z,929.72
2019-01-27T01:31:15.710Z,929.74
2019-01-27T01:31:29.150Z,929.75
2019-01-27T01:31:42.214Z,929.74
2019-01-27T01:31:55.201Z,929.75
2019-01-27T01:32:08.202Z,929.75
2019-01-27T01:32:21.201Z,929.76
2019-01-27T01:32:34.237Z,929.75
2019-01-27T01:32:46.772Z,929.77
2019-01-27T01:32:59.817Z,929.74
2019-01-27T01:33:12.860Z,929.77
2019-01-27T01:33:25.917Z,929.79
2019-01-27T01:33:38.961Z,929.77
2019-01-27T01:33:51.981Z,929.77
2019-01-27T01:34:04.972Z,929.8
2019-01-27T01:34:18.002Z,929.77
2019-01-27T01:34:31.056Z,929.78
2019-01-27T01:34:44.056Z,929.77
2019-01-27T01:34:56.971Z,929.78
2019-01-27T01:35:09.951Z,929.77
2019-01-27T01:35:22.955Z,929.8
2019-01-27T01:35:35.992Z,929.82
2019-01-27T01:35:49.689Z,929.79
2019-01-27T01:36:02.677Z,929.84
2019-01-27T01:36:15.729Z,929.83
2019-01-27T01:36:28.690Z,929.79
2019-01-27T01:36:41.728Z,929.81
2019-01-27T01:36:54.703Z,929.79
2019-01-27T01:37:07.720Z,929.77
2019-01-27T01:37:20.710Z,929.8
2019-01-27T01:37:33.724Z,929.78
2019-01-27T01:37:46.758Z,929.79
2019-01-27T01:37:59.282Z,929.81
2019-01-27T01:38:12.252Z,929.79
2019-01-27T01:38:25.263Z,929.82
2019-01-27T01:38:38.253Z,929.82
2019-01-27T01:38:51.230Z,929.81
2019-01-27T01:39:04.211Z,929.79
2019-01-27T01:39:17.192Z,929.81
2019-01-27T01:39:30.257Z,929.77
2019-01-27T01:39:43.235Z,929.79
2019-01-27T01:39:56.210Z,929.79
2019-01-27T01:40:09.193Z,929.79
2019-01-27T01:40:22.238Z,929.78
2019-01-27T01:40:35.209Z,929.77
2019-01-27T01:40:48.635Z,929.74
2019-01-27T01:41:01.645Z,929.76
2019-01-27T01:41:14.630Z,929.76
2019-01-27T01:41:27.624Z,929.77
2019-01-27T01:41:40.647Z,929.75
2019-01-27T01:41:53.647Z,929.74
2019-01-27T01:42:06.646Z,929.67
2019-01-27T01:42:19.646Z,929.74
2019-01-27T01:42:32.678Z,929.71
2019-01-27T01:42:45.694Z,929.69
2019-01-27T01:42:58.723Z,929.75
2019-01-27T01:43:11.774Z,929.7
2019-01-27T01:43:24.774Z,929.68
2019-01-27T01:43:37.747Z,929.68
2019-01-27T01:43:50.845Z,929.69
2019-01-27T01:44:03.878Z,929.68
2019-01-27T01:44:16.824Z,929.69
2019-01-27T01:44:29.776Z,929.69
2019-01-27T01:44:42.795Z,929.68
2019-01-27T01:44:55.714Z,929.67
2019-01-27T01:45:08.289Z,929.7
2019-01-27T01:45:20.773Z,929.72
2019-01-27T01:45:33.817Z,929.66
2019-01-27T01:45:46.815Z,929.69
2019-01-27T01:45:59.826Z,929.7
2019-01-27T01:46:12.873Z,929.7
2019-01-27T01:46:25.883Z,929.72
2019-01-27T01:46:38.876Z,929.68
2019-01-27T01:46:51.879Z,929.67
2019-01-27T01:47:04.935Z,929.65
2019-01-27T01:47:17.937Z,929.62
2019-01-27T01:47:30.899Z,929.63
2019-01-27T01:47:43.914Z,929.6
2019-01-27T01:47:56.939Z,929.59
2019-01-27T01:48:09.912Z,929.59
2019-01-27T01:48:22.857Z,929.58
2019-01-27T01:48:35.925Z,929.62
2019-01-27T01:48:48.925Z,929.56
2019-01-27T01:49:01.867Z,929.59
2019-01-27T01:49:14.881Z,929.59
2019-01-27T01:49:27.913Z,929.59
2019-01-27T01:49:40.930Z,929.58
2019-01-27T01:49:53.964Z,929.56
2019-01-27T01:50:06.983Z,929.53
2019-01-27T01:50:20.053Z,929.56
2019-01-27T01:50:33.112Z,929.53
2019-01-27T01:50:46.117Z,929.55
2019-01-27T01:50:59.290Z,929.53
2019-01-27T01:51:12.312Z,929.55
2019-01-27T01:51:25.258Z,929.52
2019-01-27T01:51:38.257Z,929.55
2019-01-27T01:51:51.231Z,929.53
2019-01-27T01:52:04.213Z,929.6
2019-01-27T01:52:17.186Z,929.53
2019-01-27T01:52:30.152Z,929.55
2019-01-27T01:52:43.113Z,929.56
2019-01-27T01:52:56.139Z,929.58
2019-01-27T01:53:09.124Z,929.54
2019-01-27T01:53:22.114Z,929.53
2019-01-27T01:53:35.124Z,929.55
2019-01-27T01:53:48.182Z,929.53
2019-01-27T01:54:01.171Z,929.52
2019-01-27T01:54:14.222Z,929.51
2019-01-27T01:54:27.306Z,929.55
2019-01-27T01:54:40.318Z,929.51
2019-01-27T01:54:53.277Z,929.52
2019-01-27T01:55:06.275Z,929.51
2019-01-27T01:55:19.248Z,929.49
2019-01-27T01:55:32.191Z,929.51
2019-01-27T01:55:45.133Z,929.54
2019-01-27T01:55:58.123Z,929.52
2019-01-27T01:56:11.165Z,929.51
2019-01-27T01:56:24.186Z,929.55
2019-01-27T01:56:37.229Z,929.53
2019-01-27T01:56:50.252Z,929.58
2019-01-27T01:57:03.265Z,929.55
2019-01-27T01:57:16.298Z,929.55
2019-01-27T01:57:29.369Z,929.55
2019-01-27T01:57:42.303Z,929.56
2019-01-27T01:57:55.291Z,929.52
2019-01-27T01:58:08.246Z,929.56
2019-01-27T01:58:21.224Z,929.53
2019-01-27T01:58:34.216Z,929.56
2019-01-27T01:58:47.199Z,929.56
2019-01-27T01:58:59.749Z,929.57
2019-01-27T01:59:12.765Z,929.56
2019-01-27T01:59:25.356Z,929.61
2019-01-27T01:59:38.377Z,929.59
2019-01-27T01:59:51.397Z,929.63
2019-01-27T02:00:04.414Z,929.55
2019-01-27T02:00:17.432Z,929.62
2019-01-27T02:00:30.473Z,929.58
2019-01-27T02:00:43.503Z,929.57
2019-01-27T02:00:56.584Z,929.6
2019-01-27T02:01:09.660Z,929.58
2019-01-27T02:01:22.720Z,929.59
2019-01-27T02:01:35.738Z,929.61
2019-01-27T02:01:48.733Z,929.61
2019-01-27T02:02:01.762Z,929.61
2019-01-27T02:02:14.795Z,929.62
2019-01-27T02:02:27.754Z,929.58
2019-01-27T02:02:40.781Z,929.61
2019-01-27T02:02:53.851Z,929.61
2019-01-27T02:03:06.857Z,929.63
2019-01-27T02:03:19.887Z,929.62
2019-01-27T02:03:32.930Z,929.59
2019-01-27T02:03:45.955Z,929.61
2019-01-27T02:03:58.962Z,929.59
2019-01-27T02:04:11.964Z,929.6
2019-01-27T02:04:25.037Z,929.61
2019-01-27T02:04:38.032Z,929.61
2019-01-27T02:04:50.983Z,929.59
2019-01-27T02:05:03.984Z,929.59
2019-01-27T02:05:16.979Z,929.57
2019-01-27T02:05:29.933Z,929.58
2019-01-27T02:05:42.898Z,929.59
2019-01-27T02:05:56.552Z,929.57
2019-01-27T02:06:09.555Z,929.54
2019-01-27T02:06:22.066Z,929.56
2019-01-27T02:06:35.019Z,929.57
2019-01-27T02:06:47.994Z,929.57
2019-01-27T02:07:00.977Z,929.56
2019-01-27T02:07:13.979Z,929.56
2019-01-27T02:07:26.977Z,929.55
2019-01-27T02:07:39.955Z,929.54
2019-01-27T02:07:52.472Z,929.55
2019-01-27T02:08:05.515Z,929.55
2019-01-27T02:08:18.589Z,929.58
2019-01-27T02:08:31.649Z,929.58
2019-01-27T02:08:44.614Z,929.6
2019-01-27T02:08:57.590Z,929.58
2019-01-27T02:09:10.585Z,929.58
2019-01-27T02:09:23.593Z,929.58
2019-01-27T02:09:36.593Z,929.56
2019-01-27T02:09:49.613Z,929.55
2019-01-27T02:10:02.665Z,929.59
2019-01-27T02:10:15.729Z,929.59
2019-01-27T02:10:28.703Z,929.56
2019-01-27T02:10:41.736Z,929.58
2019-01-27T02:10:54.728Z,929.54
2019-01-27T02:11:07.663Z,929.57
2019-01-27T02:11:20.658Z,929.56
2019-01-27T02:11:33.693Z,929.55
2019-01-27T02:11:46.701Z,929.52
2019-01-27T02:11:59.703Z,929.54
2019-01-27T02:12:12.773Z,929.55
2019-01-27T02:12:25.763Z,929.55
2019-01-27T02:12:38.747Z,929.56
2019-01-27T02:12:51.671Z,929.51
2019-01-27T02:13:04.686Z,929.55
2019-01-27T02:13:17.738Z,929.52
2019-01-27T02:13:30.743Z,929.54
2019-01-27T02:13:43.769Z,929.51
2019-01-27T02:13:56.820Z,929.52
2019-01-27T02:14:09.849Z,929.53
2019-01-27T02:14:22.416Z,929.52
2019-01-27T02:14:35.425Z,929.5
2019-01-27T02:14:48.424Z,929.53
2019-01-27T02:15:01.428Z,929.56
2019-01-27T02:15:14.421Z,929.52
2019-01-27T02:15:27.388Z,929.54
2019-01-27T02:15:39.926Z,929.52
2019-01-27T02:15:52.925Z,929.55
2019-01-27T02:16:05.868Z,929.56
2019-01-27T02:16:18.901Z,929.53
2019-01-27T02:16:31.886Z,929.56
2019-01-27T02:16:44.838Z,929.56
2019-01-27T02:16:57.913Z,929.55
2019-01-27T02:17:10.931Z,929.5
2019-01-27T02:17:24.164Z,929.54
2019-01-27T02:17:37.187Z,929.53
2019-01-27T02:17:50.157Z,929.52
2019-01-27T02:18:03.171Z,929.53
2019-01-27T02:18:16.173Z,929.55
2019-01-27T02:18:29.135Z,929.51
2019-01-27T02:18:42.231Z,929.53
2019-01-27T02:18:55.324Z,929.54
2019-01-27T02:19:08.414Z,929.52
2019-01-27T02:19:21.459Z,929.51
2019-01-27T02:19:34.484Z,929.52
2019-01-27T02:19:47.473Z,929.51
2019-01-27T02:20:00.498Z,929.51
2019-01-27T02:20:13.480Z,929.55
2019-01-27T02:20:26.431Z,929.49
2019-01-27T02:20:39.468Z,929.49
2019-01-27T02:20:52.478Z,929.5
2019-01-27T02:21:05.776Z,929.49
2019-01-27T02:21:18.743Z,929.5
2019-01-27T02:21:31.814Z,929.52
2019-01-27T02:21:44.797Z,929.5
2019-01-27T02:21:57.782Z,929.48
2019-01-27T02:22:10.805Z,929.53
2019-01-27T02:22:23.764Z,929.49
2019-01-27T02:22:36.790Z,929.53
2019-01-27T02:22:49.805Z,929.52
2019-01-27T02:23:02.829Z,929.52
2019-01-27T02:23:15.810Z,929.52
2019-01-27T02:23:28.787Z,929.49
2019-01-27T02:23:41.780Z,929.52
2019-01-27T02:23:54.785Z,929.56
2019-01-27T02:24:07.778Z,929.53
2019-01-27T02:24:20.791Z,929.51
2019-01-27T02:24:33.874Z,929.52
2019-01-27T02:24:46.884Z,929.54
2019-01-27T02:24:59.937Z,929.52
2019-01-27T02:25:12.945Z,929.48
2019-01-27T02:25:26.002Z,929.56
2019-01-27T02:25:39.051Z,929.52
2019-01-27T02:25:52.138Z,929.53
2019-01-27T02:26:05.124Z,929.53
2019-01-27T02:26:18.108Z,929.54
2019-01-27T02:26:31.069Z,929.51
2019-01-27T02:26:44.020Z,929.53
2019-01-27T02:26:57.058Z,929.51
2019-01-27T02:27:10.035Z,929.54
2019-01-27T02:27:23.077Z,929.55
2019-01-27T02:27:36.102Z,929.52
2019-01-27T02:27:49.083Z,929.52
2019-01-27T02:28:02.071Z,929.53
2019-01-27T02:28:15.114Z,929.5
2019-01-27T02:28:27.700Z,929.51
2019-01-27T02:28:40.723Z,929.53
2019-01-27T02:28:53.663Z,929.56
2019-01-27T02:29:06.640Z,929.52
2019-01-27T02:29:19.633Z,929.54
2019-01-27T02:29:32.664Z,929.52
2019-01-27T02:29:45.679Z,929.46
2019-01-27T02:29:58.668Z,929.52
2019-01-27T02:30:11.669Z,929.51
2019-01-27T02:30:24.694Z,929.49
2019-01-27T02:30:37.654Z,929.48
2019-01-27T02:30:50.668Z,929.43
2019-01-27T02:31:03.664Z,929.47
2019-01-27T02:31:16.682Z,929.47
2019-01-27T02:31:29.648Z,929.48
2019-01-27T02:31:42.692Z,929.43
2019-01-27T02:31:55.712Z,929.44
2019-01-27T02:32:08.747Z,929.44
2019-01-27T02:32:21.808Z,929.4
2019-01-27T02:32:34.776Z,929.43
2019-01-27T02:32:47.774Z,929.46
2019-01-27T02:33:00.833Z,929.43
2019-01-27T02:33:13.827Z,929.41
2019-01-27T02:33:26.823Z,929.42
2019-01-27T02:33:39.800Z,929.42
2019-01-27T02:33:52.826Z,929.42
2019-01-27T02:34:05.830Z,929.41
2019-01-27T02:34:18.788Z,929.44
2019-01-27T02:34:31.758Z,929.42
2019-01-27T02:34:45.254Z,929.39
2019-01-27T02:34:58.483Z,929.36
2019-01-27T02:35:11.538Z,929.38
2019-01-27T02:35:24.579Z,929.38
2019-01-27T02:35:37.650Z,929.37
2019-01-27T02:35:50.248Z,929.37
2019-01-27T02:36:03.269Z,929.38
2019-01-27T02:36:17.588Z,929.34
2019-01-27T02:36:30.640Z,929.36
2019-01-27T02:36:43.704Z,929.37
2019-01-27T02:36:56.780Z,929.37
2019-01-27T02:37:09.848Z,929.39
2019-01-27T02:37:22.842Z,929.4
2019-01-27T02:37:35.876Z,929.37
2019-01-27T02:37:48.902Z,929.39
2019-01-27T02:38:01.960Z,929.37
2019-01-27T02:38:14.953Z,929.37
2019-01-27T02:38:27.984Z,929.39
2019-01-27T02:38:41.039Z,929.34
2019-01-27T02:38:54.092Z,929.39
2019-01-27T02:39:07.093Z,929.37
2019-01-27T02:39:20.122Z,929.39
2019-01-27T02:39:33.147Z,929.43
2019-01-27T02:39:46.156Z,929.39
2019-01-27T02:39:59.177Z,929.38
2019-01-27T02:40:12.221Z,929.4
2019-01-27T02:40:25.205Z,929.44
2019-01-27T02:40:38.249Z,929.42
2019-01-27T02:40:51.226Z,929.42
2019-01-27T02:41:04.226Z,929.41
2019-01-27T02:41:17.196Z,929.41
2019-01-27T02:41:30.256Z,929.42
2019-01-27T02:41:42.836Z,929.39
2019-01-27T02:41:55.833Z,929.42
2019-01-27T02:42:08.824Z,929.41
2019-01-27T02:42:21.826Z,929.38
2019-01-27T02:42:34.913Z,929.4
2019-01-27T02:42:47.949Z,929.41